sensor_id;sensor_type;location;lat;lon;timestamp;P1;durP1;ratioP1;P2;durP2;ratioP2
44985;SDS011;30721;49.380;7.736;2023-01-29T00:01:02;4.72;;;3.40;;
44985;SDS011;30721;49.380;7.736;2023-01-29T00:03:28;3.88;;;3.03;;
44985;SDS011;30721;49.380;7.736;2023-01-29T00:05:54;10.15;;;3.03;;
44985;SDS011;30721;49.380;7.736;2023-01-29T00:08:19;4.65;;;2.88;;
44985;SDS011;30721;49.380;7.736;2023-01-29T00:10:44;5.22;;;3.10;;
44985;SDS011;30721;49.380;7.736;2023-01-29T00:13:10;4.57;;;3.15;;
44985;SDS011;30721;49.380;7.736;2023-01-29T00:15:35;5.05;;;2.85;;
44985;SDS011;30721;49.380;7.736;2023-01-29T00:18:00;3.45;;;2.65;;
44985;SDS011;30721;49.380;7.736;2023-01-29T00:20:26;3.75;;;2.42;;
44985;SDS011;30721;49.380;7.736;2023-01-29T00:22:51;3.17;;;2.75;;
44985;SDS011;30721;49.380;7.736;2023-01-29T00:25:16;4.32;;;2.83;;
44985;SDS011;30721;49.380;7.736;2023-01-29T00:27:42;3.97;;;2.53;;
44985;SDS011;30721;49.380;7.736;2023-01-29T00:30:08;2.90;;;2.33;;
44985;SDS011;30721;49.380;7.736;2023-01-29T00:32:40;3.95;;;2.65;;
44985;SDS011;30721;49.380;7.736;2023-01-29T00:35:06;3.50;;;2.60;;
44985;SDS011;30721;49.380;7.736;2023-01-29T00:37:32;3.72;;;2.42;;
44985;SDS011;30721;49.380;7.736;2023-01-29T00:39:57;5.20;;;3.05;;
44985;SDS011;30721;49.380;7.736;2023-01-29T00:42:23;4.43;;;3.15;;
44985;SDS011;30721;49.380;7.736;2023-01-29T00:45:07;4.82;;;3.47;;
44985;SDS011;30721;49.380;7.736;2023-01-29T00:47:32;5.20;;;3.58;;
44985;SDS011;30721;49.380;7.736;2023-01-29T00:49:59;5.38;;;3.20;;
44985;SDS011;30721;49.380;7.736;2023-01-29T00:52:25;6.75;;;3.42;;
44985;SDS011;30721;49.380;7.736;2023-01-29T00:55:00;4.55;;;3.25;;
44985;SDS011;30721;49.380;7.736;2023-01-29T00:57:26;4.57;;;2.78;;
44985;SDS011;30721;49.380;7.736;2023-01-29T00:59:53;6.28;;;3.17;;
44985;SDS011;30721;49.380;7.736;2023-01-29T01:02:18;4.35;;;3.08;;
44985;SDS011;30721;49.380;7.736;2023-01-29T01:05:03;4.72;;;3.30;;
44985;SDS011;30721;49.380;7.736;2023-01-29T01:07:38;3.97;;;2.80;;
44985;SDS011;30721;49.380;7.736;2023-01-29T01:10:06;4.10;;;3.17;;
44985;SDS011;30721;49.380;7.736;2023-01-29T01:12:45;4.82;;;2.92;;
44985;SDS011;30721;49.380;7.736;2023-01-29T01:15:10;5.75;;;3.10;;
44985;SDS011;30721;49.380;7.736;2023-01-29T01:17:36;5.22;;;3.28;;
44985;SDS011;30721;49.380;7.736;2023-01-29T01:20:02;3.42;;;2.85;;
44985;SDS011;30721;49.380;7.736;2023-01-29T01:22:28;4.28;;;3.15;;
44985;SDS011;30721;49.380;7.736;2023-01-29T01:24:53;4.57;;;3.03;;
44985;SDS011;30721;49.380;7.736;2023-01-29T01:27:18;6.28;;;3.38;;
44985;SDS011;30721;49.380;7.736;2023-01-29T01:29:44;4.47;;;2.92;;
44985;SDS011;30721;49.380;7.736;2023-01-29T01:32:10;4.47;;;3.30;;
44985;SDS011;30721;49.380;7.736;2023-01-29T01:34:36;5.65;;;3.72;;
44985;SDS011;30721;49.380;7.736;2023-01-29T01:37:01;4.68;;;3.38;;
44985;SDS011;30721;49.380;7.736;2023-01-29T01:39:27;5.88;;;3.38;;
44985;SDS011;30721;49.380;7.736;2023-01-29T01:41:52;4.45;;;3.17;;
44985;SDS011;30721;49.380;7.736;2023-01-29T01:47:15;4.65;;;2.90;;
44985;SDS011;30721;49.380;7.736;2023-01-29T01:49:42;5.10;;;3.50;;
44985;SDS011;30721;49.380;7.736;2023-01-29T01:52:08;8.50;;;4.07;;
44985;SDS011;30721;49.380;7.736;2023-01-29T01:54:34;4.10;;;3.08;;
44985;SDS011;30721;49.380;7.736;2023-01-29T01:57:00;4.75;;;3.42;;
44985;SDS011;30721;49.380;7.736;2023-01-29T01:59:41;4.80;;;3.45;;
44985;SDS011;30721;49.380;7.736;2023-01-29T02:02:09;4.55;;;3.30;;
44985;SDS011;30721;49.380;7.736;2023-01-29T02:04:53;3.85;;;2.80;;
44985;SDS011;30721;49.380;7.736;2023-01-29T02:07:41;5.90;;;3.88;;
44985;SDS011;30721;49.380;7.736;2023-01-29T02:10:26;5.50;;;3.60;;
44985;SDS011;30721;49.380;7.736;2023-01-29T02:12:53;6.05;;;3.50;;
44985;SDS011;30721;49.380;7.736;2023-01-29T02:15:18;4.85;;;3.28;;
44985;SDS011;30721;49.380;7.736;2023-01-29T02:17:43;5.53;;;3.03;;
44985;SDS011;30721;49.380;7.736;2023-01-29T02:28:30;4.00;;;3.30;;
44985;SDS011;30721;49.380;7.736;2023-01-29T02:31:13;5.53;;;3.03;;
44985;SDS011;30721;49.380;7.736;2023-01-29T02:34:31;4.82;;;2.60;;
44985;SDS011;30721;49.380;7.736;2023-01-29T02:37:06;4.22;;;2.70;;
44985;SDS011;30721;49.380;7.736;2023-01-29T02:39:39;3.88;;;3.13;;
44985;SDS011;30721;49.380;7.736;2023-01-29T02:44:59;4.57;;;2.65;;
44985;SDS011;30721;49.380;7.736;2023-01-29T02:50:07;4.47;;;3.10;;
44985;SDS011;30721;49.380;7.736;2023-01-29T02:52:50;3.33;;;2.42;;
44985;SDS011;30721;49.380;7.736;2023-01-29T02:55:34;4.60;;;2.92;;
44985;SDS011;30721;49.380;7.736;2023-01-29T02:58:06;3.63;;;2.83;;
44985;SDS011;30721;49.380;7.736;2023-01-29T03:00:37;4.22;;;2.42;;
44985;SDS011;30721;49.380;7.736;2023-01-29T03:03:13;4.57;;;2.42;;
44985;SDS011;30721;49.380;7.736;2023-01-29T03:08:30;3.25;;;2.38;;
44985;SDS011;30721;49.380;7.736;2023-01-29T03:11:07;3.35;;;2.40;;
44985;SDS011;30721;49.380;7.736;2023-01-29T03:16:16;5.32;;;2.78;;
44985;SDS011;30721;49.380;7.736;2023-01-29T03:18:45;4.45;;;2.90;;
44985;SDS011;30721;49.380;7.736;2023-01-29T03:21:20;6.53;;;2.72;;
44985;SDS011;30721;49.380;7.736;2023-01-29T03:24:14;4.18;;;2.97;;
44985;SDS011;30721;49.380;7.736;2023-01-29T03:27:01;4.00;;;2.78;;
44985;SDS011;30721;49.380;7.736;2023-01-29T03:29:47;5.55;;;2.45;;
44985;SDS011;30721;49.380;7.736;2023-01-29T03:32:32;3.65;;;2.47;;
44985;SDS011;30721;49.380;7.736;2023-01-29T03:35:00;4.32;;;3.00;;
44985;SDS011;30721;49.380;7.736;2023-01-29T03:40:07;4.10;;;2.85;;
44985;SDS011;30721;49.380;7.736;2023-01-29T03:55:59;4.95;;;2.95;;
44985;SDS011;30721;49.380;7.736;2023-01-29T04:01:13;5.13;;;3.72;;
44985;SDS011;30721;49.380;7.736;2023-01-29T04:06:23;4.95;;;3.72;;
44985;SDS011;30721;49.380;7.736;2023-01-29T04:08:54;4.25;;;3.33;;
44985;SDS011;30721;49.380;7.736;2023-01-29T04:11:22;4.00;;;2.95;;
44985;SDS011;30721;49.380;7.736;2023-01-29T04:13:49;4.55;;;3.03;;
44985;SDS011;30721;49.380;7.736;2023-01-29T04:16:17;4.55;;;3.03;;
44985;SDS011;30721;49.380;7.736;2023-01-29T04:18:46;6.13;;;3.05;;
44985;SDS011;30721;49.380;7.736;2023-01-29T04:21:12;3.97;;;2.78;;
44985;SDS011;30721;49.380;7.736;2023-01-29T04:23:37;3.83;;;2.50;;
44985;SDS011;30721;49.380;7.736;2023-01-29T04:26:08;3.67;;;2.65;;
44985;SDS011;30721;49.380;7.736;2023-01-29T04:31:13;4.43;;;2.38;;
44985;SDS011;30721;49.380;7.736;2023-01-29T04:33:58;3.45;;;2.40;;
44985;SDS011;30721;49.380;7.736;2023-01-29T04:36:40;4.22;;;2.70;;
44985;SDS011;30721;49.380;7.736;2023-01-29T04:39:12;4.80;;;2.45;;
44985;SDS011;30721;49.380;7.736;2023-01-29T04:41:52;4.55;;;2.47;;
44985;SDS011;30721;49.380;7.736;2023-01-29T04:44:22;5.70;;;2.55;;
44985;SDS011;30721;49.380;7.736;2023-01-29T04:47:14;4.68;;;2.58;;
44985;SDS011;30721;49.380;7.736;2023-01-29T04:52:59;4.50;;;2.60;;
44985;SDS011;30721;49.380;7.736;2023-01-29T04:55:34;3.25;;;2.47;;
44985;SDS011;30721;49.380;7.736;2023-01-29T05:00:52;3.80;;;2.45;;
44985;SDS011;30721;49.380;7.736;2023-01-29T05:03:18;5.93;;;2.78;;
44985;SDS011;30721;49.380;7.736;2023-01-29T05:05:44;4.07;;;2.83;;
44985;SDS011;30721;49.380;7.736;2023-01-29T05:08:13;5.18;;;2.70;;
44985;SDS011;30721;49.380;7.736;2023-01-29T05:10:41;5.93;;;2.60;;
44985;SDS011;30721;49.380;7.736;2023-01-29T05:13:07;5.65;;;3.22;;
44985;SDS011;30721;49.380;7.736;2023-01-29T05:15:36;4.88;;;2.67;;
44985;SDS011;30721;49.380;7.736;2023-01-29T05:18:03;3.97;;;2.58;;
44985;SDS011;30721;49.380;7.736;2023-01-29T05:20:33;5.25;;;3.03;;
44985;SDS011;30721;49.380;7.736;2023-01-29T05:23:00;3.35;;;2.60;;
44985;SDS011;30721;49.380;7.736;2023-01-29T05:25:27;7.30;;;2.50;;
44985;SDS011;30721;49.380;7.736;2023-01-29T05:27:54;4.18;;;2.50;;
44985;SDS011;30721;49.380;7.736;2023-01-29T05:30:40;4.57;;;2.67;;
44985;SDS011;30721;49.380;7.736;2023-01-29T05:33:28;5.15;;;3.47;;
44985;SDS011;30721;49.380;7.736;2023-01-29T05:35:54;6.35;;;3.30;;
44985;SDS011;30721;49.380;7.736;2023-01-29T05:38:21;4.53;;;2.72;;
44985;SDS011;30721;49.380;7.736;2023-01-29T05:40:46;5.25;;;2.75;;
44985;SDS011;30721;49.380;7.736;2023-01-29T05:43:22;6.22;;;3.40;;
44985;SDS011;30721;49.380;7.736;2023-01-29T05:45:52;4.00;;;2.70;;
44985;SDS011;30721;49.380;7.736;2023-01-29T05:48:24;6.38;;;3.22;;
44985;SDS011;30721;49.380;7.736;2023-01-29T05:50:51;4.07;;;2.70;;
44985;SDS011;30721;49.380;7.736;2023-01-29T05:53:17;5.90;;;2.80;;
44985;SDS011;30721;49.380;7.736;2023-01-29T05:55:42;7.25;;;3.67;;
44985;SDS011;30721;49.380;7.736;2023-01-29T05:58:09;4.40;;;2.42;;
44985;SDS011;30721;49.380;7.736;2023-01-29T06:00:34;6.40;;;3.03;;
44985;SDS011;30721;49.380;7.736;2023-01-29T06:03:00;3.83;;;2.33;;
44985;SDS011;30721;49.380;7.736;2023-01-29T06:05:25;5.18;;;2.17;;
44985;SDS011;30721;49.380;7.736;2023-01-29T06:07:51;3.95;;;2.50;;
44985;SDS011;30721;49.380;7.736;2023-01-29T06:10:17;6.13;;;2.70;;
44985;SDS011;30721;49.380;7.736;2023-01-29T06:12:46;6.20;;;3.00;;
44985;SDS011;30721;49.380;7.736;2023-01-29T06:15:11;4.90;;;3.20;;
44985;SDS011;30721;49.380;7.736;2023-01-29T06:17:39;5.72;;;2.90;;
44985;SDS011;30721;49.380;7.736;2023-01-29T06:20:05;6.35;;;2.95;;
44985;SDS011;30721;49.380;7.736;2023-01-29T06:22:31;4.57;;;2.60;;
44985;SDS011;30721;49.380;7.736;2023-01-29T06:24:57;6.20;;;3.22;;
44985;SDS011;30721;49.380;7.736;2023-01-29T06:27:22;6.68;;;3.70;;
44985;SDS011;30721;49.380;7.736;2023-01-29T06:29:47;4.60;;;2.67;;
44985;SDS011;30721;49.380;7.736;2023-01-29T06:32:13;6.53;;;2.97;;
44985;SDS011;30721;49.380;7.736;2023-01-29T06:34:38;5.20;;;2.50;;
44985;SDS011;30721;49.380;7.736;2023-01-29T06:37:03;5.35;;;2.55;;
44985;SDS011;30721;49.380;7.736;2023-01-29T06:39:29;3.88;;;2.22;;
44985;SDS011;30721;49.380;7.736;2023-01-29T06:41:54;4.07;;;2.33;;
44985;SDS011;30721;49.380;7.736;2023-01-29T06:44:19;4.80;;;2.80;;
44985;SDS011;30721;49.380;7.736;2023-01-29T06:46:45;4.63;;;3.00;;
44985;SDS011;30721;49.380;7.736;2023-01-29T06:49:10;4.57;;;2.67;;
44985;SDS011;30721;49.380;7.736;2023-01-29T06:51:35;6.93;;;2.58;;
44985;SDS011;30721;49.380;7.736;2023-01-29T06:54:01;4.55;;;2.80;;
44985;SDS011;30721;49.380;7.736;2023-01-29T06:56:26;5.13;;;2.70;;
44985;SDS011;30721;49.380;7.736;2023-01-29T06:58:51;5.55;;;2.95;;
44985;SDS011;30721;49.380;7.736;2023-01-29T07:01:17;6.05;;;3.85;;
44985;SDS011;30721;49.380;7.736;2023-01-29T07:03:42;5.32;;;3.13;;
44985;SDS011;30721;49.380;7.736;2023-01-29T07:06:08;5.05;;;2.90;;
44985;SDS011;30721;49.380;7.736;2023-01-29T07:08:37;5.15;;;3.13;;
44985;SDS011;30721;49.380;7.736;2023-01-29T07:11:03;5.95;;;3.20;;
44985;SDS011;30721;49.380;7.736;2023-01-29T07:13:29;4.68;;;2.75;;
44985;SDS011;30721;49.380;7.736;2023-01-29T07:16:01;4.65;;;2.75;;
44985;SDS011;30721;49.380;7.736;2023-01-29T07:18:27;5.57;;;3.28;;
44985;SDS011;30721;49.380;7.736;2023-01-29T07:20:53;4.70;;;3.20;;
44985;SDS011;30721;49.380;7.736;2023-01-29T07:23:18;4.32;;;2.97;;
44985;SDS011;30721;49.380;7.736;2023-01-29T07:25:44;4.60;;;2.88;;
44985;SDS011;30721;49.380;7.736;2023-01-29T07:28:09;4.95;;;2.97;;
44985;SDS011;30721;49.380;7.736;2023-01-29T07:30:35;4.80;;;3.85;;
44985;SDS011;30721;49.380;7.736;2023-01-29T07:33:04;6.38;;;3.42;;
44985;SDS011;30721;49.380;7.736;2023-01-29T07:35:31;6.03;;;4.18;;
44985;SDS011;30721;49.380;7.736;2023-01-29T07:37:59;6.90;;;3.90;;
44985;SDS011;30721;49.380;7.736;2023-01-29T07:40:25;4.88;;;3.30;;
44985;SDS011;30721;49.380;7.736;2023-01-29T07:42:50;5.00;;;3.10;;
44985;SDS011;30721;49.380;7.736;2023-01-29T07:45:15;5.28;;;3.17;;
44985;SDS011;30721;49.380;7.736;2023-01-29T07:47:41;6.43;;;4.15;;
44985;SDS011;30721;49.380;7.736;2023-01-29T07:50:06;10.73;;;6.30;;
44985;SDS011;30721;49.380;7.736;2023-01-29T07:52:32;8.48;;;3.97;;
44985;SDS011;30721;49.380;7.736;2023-01-29T07:54:58;6.82;;;3.17;;
44985;SDS011;30721;49.380;7.736;2023-01-29T07:57:23;5.45;;;3.42;;
44985;SDS011;30721;49.380;7.736;2023-01-29T07:59:49;6.53;;;3.63;;
44985;SDS011;30721;49.380;7.736;2023-01-29T08:02:14;4.90;;;2.88;;
44985;SDS011;30721;49.380;7.736;2023-01-29T08:04:39;5.90;;;3.33;;
44985;SDS011;30721;49.380;7.736;2023-01-29T08:07:05;8.30;;;3.00;;
44985;SDS011;30721;49.380;7.736;2023-01-29T08:09:30;5.65;;;3.15;;
44985;SDS011;30721;49.380;7.736;2023-01-29T08:11:56;8.35;;;6.63;;
44985;SDS011;30721;49.380;7.736;2023-01-29T08:14:21;7.00;;;5.03;;
44985;SDS011;30721;49.380;7.736;2023-01-29T08:16:47;9.00;;;5.25;;
44985;SDS011;30721;49.380;7.736;2023-01-29T08:19:13;6.75;;;4.50;;
44985;SDS011;30721;49.380;7.736;2023-01-29T08:21:38;5.43;;;3.78;;
44985;SDS011;30721;49.380;7.736;2023-01-29T08:24:04;6.57;;;3.88;;
44985;SDS011;30721;49.380;7.736;2023-01-29T08:26:29;6.30;;;3.40;;
44985;SDS011;30721;49.380;7.736;2023-01-29T08:28:54;5.75;;;2.72;;
44985;SDS011;30721;49.380;7.736;2023-01-29T08:31:20;7.82;;;3.78;;
44985;SDS011;30721;49.380;7.736;2023-01-29T08:33:45;11.35;;;5.53;;
44985;SDS011;30721;49.380;7.736;2023-01-29T08:36:11;7.93;;;4.25;;
44985;SDS011;30721;49.380;7.736;2023-01-29T08:38:36;7.32;;;4.57;;
44985;SDS011;30721;49.380;7.736;2023-01-29T08:41:01;8.43;;;4.45;;
44985;SDS011;30721;49.380;7.736;2023-01-29T08:43:28;6.88;;;4.70;;
44985;SDS011;30721;49.380;7.736;2023-01-29T08:45:54;5.88;;;3.42;;
44985;SDS011;30721;49.380;7.736;2023-01-29T08:48:19;6.18;;;3.58;;
44985;SDS011;30721;49.380;7.736;2023-01-29T08:50:45;6.93;;;3.63;;
44985;SDS011;30721;49.380;7.736;2023-01-29T08:53:10;5.35;;;3.20;;
44985;SDS011;30721;49.380;7.736;2023-01-29T08:55:36;5.45;;;3.58;;
44985;SDS011;30721;49.380;7.736;2023-01-29T08:58:03;10.60;;;5.65;;
44985;SDS011;30721;49.380;7.736;2023-01-29T09:00:29;11.95;;;6.43;;
44985;SDS011;30721;49.380;7.736;2023-01-29T09:02:55;8.23;;;4.55;;
44985;SDS011;30721;49.380;7.736;2023-01-29T09:05:23;4.90;;;3.38;;
44985;SDS011;30721;49.380;7.736;2023-01-29T09:07:48;5.50;;;3.38;;
44985;SDS011;30721;49.380;7.736;2023-01-29T09:10:14;4.75;;;3.28;;
44985;SDS011;30721;49.380;7.736;2023-01-29T09:12:39;6.00;;;3.53;;
44985;SDS011;30721;49.380;7.736;2023-01-29T09:15:05;4.95;;;3.13;;
44985;SDS011;30721;49.380;7.736;2023-01-29T09:17:31;7.15;;;3.10;;
44985;SDS011;30721;49.380;7.736;2023-01-29T09:19:56;4.40;;;2.75;;
44985;SDS011;30721;49.380;7.736;2023-01-29T09:22:22;4.55;;;2.85;;
44985;SDS011;30721;49.380;7.736;2023-01-29T09:24:48;4.60;;;2.92;;
44985;SDS011;30721;49.380;7.736;2023-01-29T09:27:13;4.97;;;3.40;;
44985;SDS011;30721;49.380;7.736;2023-01-29T09:29:38;5.10;;;2.70;;
44985;SDS011;30721;49.380;7.736;2023-01-29T09:32:04;5.18;;;2.60;;
44985;SDS011;30721;49.380;7.736;2023-01-29T09:34:29;6.55;;;3.25;;
44985;SDS011;30721;49.380;7.736;2023-01-29T09:36:55;4.28;;;2.63;;
44985;SDS011;30721;49.380;7.736;2023-01-29T09:39:20;4.72;;;2.90;;
44985;SDS011;30721;49.380;7.736;2023-01-29T09:47:17;6.88;;;2.83;;
44985;SDS011;30721;49.380;7.736;2023-01-29T09:49:57;5.30;;;3.03;;
44985;SDS011;30721;49.380;7.736;2023-01-29T09:53:03;6.45;;;3.30;;
44985;SDS011;30721;49.380;7.736;2023-01-29T09:57:53;5.45;;;3.25;;
44985;SDS011;30721;49.380;7.736;2023-01-29T10:00:39;5.35;;;2.97;;
44985;SDS011;30721;49.380;7.736;2023-01-29T10:05:53;4.78;;;3.05;;
44985;SDS011;30721;49.380;7.736;2023-01-29T10:13:49;4.78;;;3.35;;
44985;SDS011;30721;49.380;7.736;2023-01-29T10:16:35;3.88;;;2.90;;
44985;SDS011;30721;49.380;7.736;2023-01-29T10:27:17;5.15;;;3.00;;
44985;SDS011;30721;49.380;7.736;2023-01-29T10:29:43;3.47;;;2.08;;
44985;SDS011;30721;49.380;7.736;2023-01-29T10:32:19;5.50;;;3.00;;
44985;SDS011;30721;49.380;7.736;2023-01-29T10:34:47;4.03;;;2.67;;
44985;SDS011;30721;49.380;7.736;2023-01-29T10:37:17;6.70;;;3.80;;
44985;SDS011;30721;49.380;7.736;2023-01-29T10:39:47;4.90;;;2.83;;
44985;SDS011;30721;49.380;7.736;2023-01-29T10:42:21;6.40;;;2.92;;
44985;SDS011;30721;49.380;7.736;2023-01-29T10:53:02;3.83;;;2.70;;
44985;SDS011;30721;49.380;7.736;2023-01-29T10:55:33;4.05;;;2.60;;
44985;SDS011;30721;49.380;7.736;2023-01-29T10:58:09;5.03;;;2.90;;
44985;SDS011;30721;49.380;7.736;2023-01-29T11:00:42;4.15;;;2.75;;
44985;SDS011;30721;49.380;7.736;2023-01-29T11:03:15;4.30;;;3.13;;
44985;SDS011;30721;49.380;7.736;2023-01-29T11:06:15;5.95;;;3.13;;
44985;SDS011;30721;49.380;7.736;2023-01-29T11:11:19;4.32;;;2.67;;
44985;SDS011;30721;49.380;7.736;2023-01-29T11:13:51;6.45;;;3.25;;
44985;SDS011;30721;49.380;7.736;2023-01-29T11:16:31;4.30;;;2.88;;
44985;SDS011;30721;49.380;7.736;2023-01-29T11:19:05;4.43;;;2.42;;
44985;SDS011;30721;49.380;7.736;2023-01-29T11:21:30;3.80;;;2.50;;
44985;SDS011;30721;49.380;7.736;2023-01-29T11:24:14;4.22;;;2.42;;
44985;SDS011;30721;49.380;7.736;2023-01-29T11:26:41;5.65;;;3.05;;
44985;SDS011;30721;49.380;7.736;2023-01-29T11:31:53;3.97;;;2.63;;
44985;SDS011;30721;49.380;7.736;2023-01-29T11:34:22;4.03;;;2.60;;
44985;SDS011;30721;49.380;7.736;2023-01-29T11:36:57;4.05;;;2.70;;
44985;SDS011;30721;49.380;7.736;2023-01-29T11:39:24;5.47;;;3.05;;
44985;SDS011;30721;49.380;7.736;2023-01-29T11:42:03;4.72;;;2.75;;
44985;SDS011;30721;49.380;7.736;2023-01-29T11:47:17;4.95;;;3.20;;
44985;SDS011;30721;49.380;7.736;2023-01-29T11:49:45;5.65;;;3.28;;
44985;SDS011;30721;49.380;7.736;2023-01-29T11:52:12;4.32;;;3.13;;
44985;SDS011;30721;49.380;7.736;2023-01-29T11:54:43;4.63;;;3.25;;
44985;SDS011;30721;49.380;7.736;2023-01-29T11:57:18;5.78;;;3.42;;
44985;SDS011;30721;49.380;7.736;2023-01-29T11:59:49;3.90;;;2.97;;
44985;SDS011;30721;49.380;7.736;2023-01-29T12:04:53;4.70;;;3.15;;
44985;SDS011;30721;49.380;7.736;2023-01-29T12:07:19;4.72;;;3.25;;
44985;SDS011;30721;49.380;7.736;2023-01-29T12:09:54;5.25;;;3.88;;
44985;SDS011;30721;49.380;7.736;2023-01-29T12:12:31;4.32;;;3.22;;
44985;SDS011;30721;49.380;7.736;2023-01-29T12:15:31;5.05;;;3.55;;
44985;SDS011;30721;49.380;7.736;2023-01-29T12:17:51;5.57;;;3.60;;
44985;SDS011;30721;49.380;7.736;2023-01-29T12:20:22;4.68;;;3.53;;
44985;SDS011;30721;49.380;7.736;2023-01-29T12:22:55;4.65;;;3.45;;
44985;SDS011;30721;49.380;7.736;2023-01-29T12:25:30;3.75;;;3.08;;
44985;SDS011;30721;49.380;7.736;2023-01-29T12:28:03;5.68;;;3.28;;
44985;SDS011;30721;49.380;7.736;2023-01-29T12:35:56;6.90;;;3.27;;
44985;SDS011;30721;49.380;7.736;2023-01-29T12:38:26;6.70;;;4.25;;
44985;SDS011;30721;49.380;7.736;2023-01-29T12:40:52;5.40;;;3.53;;
44985;SDS011;30721;49.380;7.736;2023-01-29T12:43:22;5.15;;;3.38;;
44985;SDS011;30721;49.380;7.736;2023-01-29T12:45:52;6.00;;;4.13;;
44985;SDS011;30721;49.380;7.736;2023-01-29T12:48:19;6.35;;;3.38;;
44985;SDS011;30721;49.380;7.736;2023-01-29T12:50:48;4.47;;;3.30;;
44985;SDS011;30721;49.380;7.736;2023-01-29T12:55:58;5.47;;;3.50;;
44985;SDS011;30721;49.380;7.736;2023-01-29T13:01:02;5.85;;;3.35;;
44985;SDS011;30721;49.380;7.736;2023-01-29T13:03:41;5.30;;;3.92;;
44985;SDS011;30721;49.380;7.736;2023-01-29T13:06:10;6.45;;;4.03;;
44985;SDS011;30721;49.380;7.736;2023-01-29T13:09:01;4.82;;;3.88;;
44985;SDS011;30721;49.380;7.736;2023-01-29T13:11:32;8.02;;;3.92;;
44985;SDS011;30721;49.380;7.736;2023-01-29T13:16:54;6.72;;;4.00;;
44985;SDS011;30721;49.380;7.736;2023-01-29T13:19:28;6.05;;;3.47;;
44985;SDS011;30721;49.380;7.736;2023-01-29T13:21:58;7.97;;;5.00;;
44985;SDS011;30721;49.380;7.736;2023-01-29T13:24:25;6.80;;;4.40;;
44985;SDS011;30721;49.380;7.736;2023-01-29T13:26:54;8.25;;;4.13;;
44985;SDS011;30721;49.380;7.736;2023-01-29T13:31:46;7.32;;;4.72;;
44985;SDS011;30721;49.380;7.736;2023-01-29T13:34:13;7.43;;;4.93;;
44985;SDS011;30721;49.380;7.736;2023-01-29T13:36:46;5.15;;;4.28;;
44985;SDS011;30721;49.380;7.736;2023-01-29T13:41:41;6.95;;;4.45;;
44985;SDS011;30721;49.380;7.736;2023-01-29T13:47:06;5.68;;;3.85;;
44985;SDS011;30721;49.380;7.736;2023-01-29T13:49:35;6.72;;;4.15;;
44985;SDS011;30721;49.380;7.736;2023-01-29T13:52:21;6.10;;;3.97;;
44985;SDS011;30721;49.380;7.736;2023-01-29T13:54:56;7.53;;;4.10;;
44985;SDS011;30721;49.380;7.736;2023-01-29T14:10:38;6.60;;;4.07;;
44985;SDS011;30721;49.380;7.736;2023-01-29T14:15:42;6.15;;;4.05;;
44985;SDS011;30721;49.380;7.736;2023-01-29T14:18:19;7.25;;;4.60;;
44985;SDS011;30721;49.380;7.736;2023-01-29T14:23:28;6.15;;;4.65;;
44985;SDS011;30721;49.380;7.736;2023-01-29T14:26:04;6.90;;;4.47;;
44985;SDS011;30721;49.380;7.736;2023-01-29T14:28:42;6.00;;;3.85;;
44985;SDS011;30721;49.380;7.736;2023-01-29T14:31:07;5.45;;;3.75;;
44985;SDS011;30721;49.380;7.736;2023-01-29T14:33:37;6.53;;;4.38;;
44985;SDS011;30721;49.380;7.736;2023-01-29T14:36:05;6.88;;;4.40;;
44985;SDS011;30721;49.380;7.736;2023-01-29T14:38:34;6.20;;;3.80;;
44985;SDS011;30721;49.380;7.736;2023-01-29T14:41:04;5.57;;;3.83;;
44985;SDS011;30721;49.380;7.736;2023-01-29T14:43:35;7.68;;;4.78;;
44985;SDS011;30721;49.380;7.736;2023-01-29T14:48:57;7.20;;;3.97;;
44985;SDS011;30721;49.380;7.736;2023-01-29T14:51:22;6.22;;;3.63;;
44985;SDS011;30721;49.380;7.736;2023-01-29T14:54:10;5.78;;;4.00;;
44985;SDS011;30721;49.380;7.736;2023-01-29T14:59:31;5.75;;;3.72;;
44985;SDS011;30721;49.380;7.736;2023-01-29T15:02:03;6.13;;;4.25;;
44985;SDS011;30721;49.380;7.736;2023-01-29T15:04:55;7.28;;;4.60;;
44985;SDS011;30721;49.380;7.736;2023-01-29T15:07:24;6.05;;;3.83;;
44985;SDS011;30721;49.380;7.736;2023-01-29T15:10:47;8.75;;;5.20;;
44985;SDS011;30721;49.380;7.736;2023-01-29T15:21:12;8.07;;;4.50;;
44985;SDS011;30721;49.380;7.736;2023-01-29T15:23:39;7.97;;;4.35;;
44985;SDS011;30721;49.380;7.736;2023-01-29T15:26:09;5.13;;;3.83;;
44985;SDS011;30721;49.380;7.736;2023-01-29T15:28:36;5.47;;;4.20;;
44985;SDS011;30721;49.380;7.736;2023-01-29T15:31:04;7.03;;;4.50;;
44985;SDS011;30721;49.380;7.736;2023-01-29T15:33:35;6.45;;;4.07;;
44985;SDS011;30721;49.380;7.736;2023-01-29T15:36:04;5.68;;;3.92;;
44985;SDS011;30721;49.380;7.736;2023-01-29T15:38:30;6.70;;;4.65;;
44985;SDS011;30721;49.380;7.736;2023-01-29T15:40:56;6.55;;;4.22;;
44985;SDS011;30721;49.380;7.736;2023-01-29T15:43:43;6.18;;;4.00;;
44985;SDS011;30721;49.380;7.736;2023-01-29T15:46:11;5.30;;;3.80;;
44985;SDS011;30721;49.380;7.736;2023-01-29T15:48:45;9.73;;;4.80;;
44985;SDS011;30721;49.380;7.736;2023-01-29T15:51:19;6.75;;;4.43;;
44985;SDS011;30721;49.380;7.736;2023-01-29T15:53:53;7.25;;;4.28;;
44985;SDS011;30721;49.380;7.736;2023-01-29T15:56:25;8.40;;;4.93;;
44985;SDS011;30721;49.380;7.736;2023-01-29T15:58:53;10.80;;;6.47;;
44985;SDS011;30721;49.380;7.736;2023-01-29T16:01:19;15.65;;;11.55;;
44985;SDS011;30721;49.380;7.736;2023-01-29T16:03:47;9.65;;;5.95;;
44985;SDS011;30721;49.380;7.736;2023-01-29T16:06:13;7.95;;;4.85;;
44985;SDS011;30721;49.380;7.736;2023-01-29T16:08:38;9.10;;;5.53;;
44985;SDS011;30721;49.380;7.736;2023-01-29T16:11:05;6.95;;;4.65;;
44985;SDS011;30721;49.380;7.736;2023-01-29T16:13:39;8.30;;;4.68;;
44985;SDS011;30721;49.380;7.736;2023-01-29T16:16:25;6.47;;;4.43;;
44985;SDS011;30721;49.380;7.736;2023-01-29T16:18:51;7.38;;;5.35;;
44985;SDS011;30721;49.380;7.736;2023-01-29T16:21:21;8.32;;;4.82;;
44985;SDS011;30721;49.380;7.736;2023-01-29T16:23:58;6.50;;;4.45;;
44985;SDS011;30721;49.380;7.736;2023-01-29T16:26:27;9.10;;;5.20;;
44985;SDS011;30721;49.380;7.736;2023-01-29T16:28:54;7.88;;;5.10;;
44985;SDS011;30721;49.380;7.736;2023-01-29T16:31:22;9.40;;;4.50;;
44985;SDS011;30721;49.380;7.736;2023-01-29T16:33:51;8.70;;;5.45;;
44985;SDS011;30721;49.380;7.736;2023-01-29T16:36:20;9.15;;;5.32;;
44985;SDS011;30721;49.380;7.736;2023-01-29T16:38:51;8.57;;;5.25;;
44985;SDS011;30721;49.380;7.736;2023-01-29T16:46:22;10.93;;;6.50;;
44985;SDS011;30721;49.380;7.736;2023-01-29T16:48:48;11.18;;;6.28;;
44985;SDS011;30721;49.380;7.736;2023-01-29T16:51:19;10.80;;;5.68;;
44985;SDS011;30721;49.380;7.736;2023-01-29T16:56:23;10.10;;;6.35;;
44985;SDS011;30721;49.380;7.736;2023-01-29T16:58:50;9.98;;;5.72;;
44985;SDS011;30721;49.380;7.736;2023-01-29T17:01:16;11.73;;;6.15;;
44985;SDS011;30721;49.380;7.736;2023-01-29T17:03:42;11.63;;;6.25;;
44985;SDS011;30721;49.380;7.736;2023-01-29T17:06:11;11.75;;;6.10;;
44985;SDS011;30721;49.380;7.736;2023-01-29T17:08:40;12.07;;;6.53;;
44985;SDS011;30721;49.380;7.736;2023-01-29T17:11:06;10.88;;;5.90;;
44985;SDS011;30721;49.380;7.736;2023-01-29T17:13:37;11.13;;;6.60;;
44985;SDS011;30721;49.380;7.736;2023-01-29T17:18:46;12.45;;;6.53;;
44985;SDS011;30721;49.380;7.736;2023-01-29T17:21:11;11.48;;;6.22;;
44985;SDS011;30721;49.380;7.736;2023-01-29T17:23:37;9.85;;;6.75;;
44985;SDS011;30721;49.380;7.736;2023-01-29T17:26:02;11.35;;;6.60;;
44985;SDS011;30721;49.380;7.736;2023-01-29T17:28:31;11.00;;;6.38;;
44985;SDS011;30721;49.380;7.736;2023-01-29T17:30:56;11.70;;;6.32;;
44985;SDS011;30721;49.380;7.736;2023-01-29T17:33:22;11.45;;;6.07;;
44985;SDS011;30721;49.380;7.736;2023-01-29T17:35:50;13.75;;;6.53;;
44985;SDS011;30721;49.380;7.736;2023-01-29T17:38:16;11.73;;;6.38;;
44985;SDS011;30721;49.380;7.736;2023-01-29T17:40:56;10.68;;;7.10;;